sensor_id;sensor_type;location;lat;lon;timestamp;P1;durP1;ratioP1;P2;durP2;ratioP2
22144;SDS011;11238;48.730;11.566;2023-11-19T00:00:07;2.10;;;1.80;;
22144;SDS011;11238;48.730;11.566;2023-11-19T00:02:38;1.83;;;1.60;;
22144;SDS011;11238;48.730;11.566;2023-11-19T00:05:04;3.15;;;2.03;;
22144;SDS011;11238;48.730;11.566;2023-11-19T00:07:34;1.85;;;1.73;;
22144;SDS011;11238;48.730;11.566;2023-11-19T00:10:02;2.00;;;1.80;;
22144;SDS011;11238;48.730;11.566;2023-11-19T00:12:32;1.90;;;1.67;;
22144;SDS011;11238;48.730;11.566;2023-11-19T00:14:59;2.88;;;1.92;;
22144;SDS011;11238;48.730;11.566;2023-11-19T00:17:26;1.75;;;1.65;;
22144;SDS011;11238;48.730;11.566;2023-11-19T00:19:54;2.00;;;1.80;;
22144;SDS011;11238;48.730;11.566;2023-11-19T00:22:20;2.72;;;1.85;;
22144;SDS011;11238;48.730;11.566;2023-11-19T00:24:47;2.17;;;1.98;;
22144;SDS011;11238;48.730;11.566;2023-11-19T00:27:13;3.35;;;1.98;;
22144;SDS011;11238;48.730;11.566;2023-11-19T00:29:39;2.17;;;1.98;;
22144;SDS011;11238;48.730;11.566;2023-11-19T00:32:06;3.03;;;1.77;;
22144;SDS011;11238;48.730;11.566;2023-11-19T00:34:33;2.22;;;2.03;;
22144;SDS011;11238;48.730;11.566;2023-11-19T00:36:58;2.40;;;2.13;;
22144;SDS011;11238;48.730;11.566;2023-11-19T00:39:24;2.58;;;1.83;;
22144;SDS011;11238;48.730;11.566;2023-11-19T00:41:50;2.42;;;2.20;;
22144;SDS011;11238;48.730;11.566;2023-11-19T00:44:17;3.63;;;1.92;;
22144;SDS011;11238;48.730;11.566;2023-11-19T00:46:43;2.45;;;1.90;;
22144;SDS011;11238;48.730;11.566;2023-11-19T00:49:09;2.13;;;1.92;;
22144;SDS011;11238;48.730;11.566;2023-11-19T00:51:36;3.28;;;2.17;;
22144;SDS011;11238;48.730;11.566;2023-11-19T00:54:03;2.65;;;2.17;;
22144;SDS011;11238;48.730;11.566;2023-11-19T00:56:29;4.22;;;2.08;;
22144;SDS011;11238;48.730;11.566;2023-11-19T00:58:55;2.13;;;1.92;;
22144;SDS011;11238;48.730;11.566;2023-11-19T01:01:21;2.60;;;2.10;;
22144;SDS011;11238;48.730;11.566;2023-11-19T01:03:47;2.13;;;2.03;;
22144;SDS011;11238;48.730;11.566;2023-11-19T01:06:13;2.50;;;2.30;;
22144;SDS011;11238;48.730;11.566;2023-11-19T01:08:42;3.58;;;2.30;;
22144;SDS011;11238;48.730;11.566;2023-11-19T01:11:19;2.78;;;2.20;;
22144;SDS011;11238;48.730;11.566;2023-11-19T01:13:46;3.28;;;2.20;;
22144;SDS011;11238;48.730;11.566;2023-11-19T01:16:13;2.75;;;2.20;;
22144;SDS011;11238;48.730;11.566;2023-11-19T01:18:38;3.60;;;2.33;;
22144;SDS011;11238;48.730;11.566;2023-11-19T01:21:05;2.63;;;2.10;;
22144;SDS011;11238;48.730;11.566;2023-11-19T01:23:31;2.45;;;2.25;;
22144;SDS011;11238;48.730;11.566;2023-11-19T01:25:59;2.22;;;2.03;;
22144;SDS011;11238;48.730;11.566;2023-11-19T01:28:24;3.13;;;2.58;;
22144;SDS011;11238;48.730;11.566;2023-11-19T01:30:51;3.47;;;2.40;;
22144;SDS011;11238;48.730;11.566;2023-11-19T01:33:17;2.33;;;2.10;;
22144;SDS011;11238;48.730;11.566;2023-11-19T01:35:42;5.28;;;2.22;;
22144;SDS011;11238;48.730;11.566;2023-11-19T01:38:08;2.75;;;2.35;;
22144;SDS011;11238;48.730;11.566;2023-11-19T01:40:35;4.10;;;2.35;;
22144;SDS011;11238;48.730;11.566;2023-11-19T01:43:01;2.33;;;2.13;;
22144;SDS011;11238;48.730;11.566;2023-11-19T01:45:28;3.53;;;2.38;;
22144;SDS011;11238;48.730;11.566;2023-11-19T01:47:59;5.65;;;2.33;;
22144;SDS011;11238;48.730;11.566;2023-11-19T01:50:28;2.50;;;2.28;;
22144;SDS011;11238;48.730;11.566;2023-11-19T01:52:55;2.85;;;2.35;;
22144;SDS011;11238;48.730;11.566;2023-11-19T01:55:23;3.63;;;2.65;;
22144;SDS011;11238;48.730;11.566;2023-11-19T01:57:51;2.50;;;2.30;;
22144;SDS011;11238;48.730;11.566;2023-11-19T02:00:21;2.95;;;2.53;;
22144;SDS011;11238;48.730;11.566;2023-11-19T02:02:46;3.40;;;2.63;;
22144;SDS011;11238;48.730;11.566;2023-11-19T02:05:13;2.63;;;2.33;;
22144;SDS011;11238;48.730;11.566;2023-11-19T02:07:39;4.03;;;2.50;;
22144;SDS011;11238;48.730;11.566;2023-11-19T02:10:06;4.05;;;2.63;;
22144;SDS011;11238;48.730;11.566;2023-11-19T02:12:33;3.70;;;2.63;;
22144;SDS011;11238;48.730;11.566;2023-11-19T02:15:01;3.47;;;2.50;;
22144;SDS011;11238;48.730;11.566;2023-11-19T02:17:28;4.38;;;2.70;;
22144;SDS011;11238;48.730;11.566;2023-11-19T02:19:57;3.40;;;3.10;;
22144;SDS011;11238;48.730;11.566;2023-11-19T02:22:26;2.92;;;2.53;;
22144;SDS011;11238;48.730;11.566;2023-11-19T02:24:54;5.38;;;2.83;;
22144;SDS011;11238;48.730;11.566;2023-11-19T02:29:56;4.50;;;2.80;;
22144;SDS011;11238;48.730;11.566;2023-11-19T02:32:23;4.43;;;2.97;;
22144;SDS011;11238;48.730;11.566;2023-11-19T02:34:52;3.33;;;2.53;;
22144;SDS011;11238;48.730;11.566;2023-11-19T02:37:18;3.10;;;2.80;;
22144;SDS011;11238;48.730;11.566;2023-11-19T02:39:44;3.72;;;2.60;;
22144;SDS011;11238;48.730;11.566;2023-11-19T02:42:10;4.50;;;2.92;;
22144;SDS011;11238;48.730;11.566;2023-11-19T02:44:36;4.70;;;3.47;;
22144;SDS011;11238;48.730;11.566;2023-11-19T02:47:02;4.22;;;3.13;;
22144;SDS011;11238;48.730;11.566;2023-11-19T02:49:31;4.97;;;3.45;;
22144;SDS011;11238;48.730;11.566;2023-11-19T02:51:57;3.78;;;3.05;;
22144;SDS011;11238;48.730;11.566;2023-11-19T02:54:24;3.72;;;2.72;;
22144;SDS011;11238;48.730;11.566;2023-11-19T02:56:52;3.97;;;3.13;;
22144;SDS011;11238;48.730;11.566;2023-11-19T02:59:25;4.78;;;3.33;;
22144;SDS011;11238;48.730;11.566;2023-11-19T03:02:05;3.80;;;2.80;;
22144;SDS011;11238;48.730;11.566;2023-11-19T03:04:33;3.30;;;2.83;;
22144;SDS011;11238;48.730;11.566;2023-11-19T03:06:59;4.47;;;3.40;;
22144;SDS011;11238;48.730;11.566;2023-11-19T03:09:26;3.33;;;2.85;;
22144;SDS011;11238;48.730;11.566;2023-11-19T03:11:53;4.10;;;3.25;;
22144;SDS011;11238;48.730;11.566;2023-11-19T03:14:19;3.70;;;3.05;;
22144;SDS011;11238;48.730;11.566;2023-11-19T03:16:45;3.80;;;2.97;;
22144;SDS011;11238;48.730;11.566;2023-11-19T03:19:11;4.20;;;3.08;;
22144;SDS011;11238;48.730;11.566;2023-11-19T03:21:37;4.13;;;2.95;;
22144;SDS011;11238;48.730;11.566;2023-11-19T03:24:03;4.03;;;3.10;;
22144;SDS011;11238;48.730;11.566;2023-11-19T03:26:29;5.03;;;3.28;;
22144;SDS011;11238;48.730;11.566;2023-11-19T03:28:55;5.43;;;3.28;;
22144;SDS011;11238;48.730;11.566;2023-11-19T03:31:22;4.13;;;2.95;;
22144;SDS011;11238;48.730;11.566;2023-11-19T03:33:50;4.28;;;3.30;;
22144;SDS011;11238;48.730;11.566;2023-11-19T03:36:17;4.75;;;3.17;;
22144;SDS011;11238;48.730;11.566;2023-11-19T03:38:45;4.32;;;3.17;;
22144;SDS011;11238;48.730;11.566;2023-11-19T03:41:12;4.22;;;3.33;;
22144;SDS011;11238;48.730;11.566;2023-11-19T03:43:39;4.85;;;3.40;;
22144;SDS011;11238;48.730;11.566;2023-11-19T03:46:15;4.53;;;3.20;;
22144;SDS011;11238;48.730;11.566;2023-11-19T03:48:42;4.38;;;3.53;;
22144;SDS011;11238;48.730;11.566;2023-11-19T03:51:08;4.55;;;3.22;;
22144;SDS011;11238;48.730;11.566;2023-11-19T03:53:35;4.80;;;3.13;;
22144;SDS011;11238;48.730;11.566;2023-11-19T03:56:00;6.32;;;3.45;;
22144;SDS011;11238;48.730;11.566;2023-11-19T03:58:26;4.28;;;3.60;;
22144;SDS011;11238;48.730;11.566;2023-11-19T04:00:52;4.68;;;3.50;;
22144;SDS011;11238;48.730;11.566;2023-11-19T04:03:18;4.10;;;3.00;;
22144;SDS011;11238;48.730;11.566;2023-11-19T04:05:45;4.32;;;3.28;;
22144;SDS011;11238;48.730;11.566;2023-11-19T04:08:10;5.95;;;3.75;;
22144;SDS011;11238;48.730;11.566;2023-11-19T04:10:36;4.25;;;3.15;;
22144;SDS011;11238;48.730;11.566;2023-11-19T04:13:02;4.28;;;3.25;;
22144;SDS011;11238;48.730;11.566;2023-11-19T04:15:28;3.72;;;3.10;;
22144;SDS011;11238;48.730;11.566;2023-11-19T04:17:54;4.07;;;3.08;;
22144;SDS011;11238;48.730;11.566;2023-11-19T04:20:20;5.30;;;3.08;;
22144;SDS011;11238;48.730;11.566;2023-11-19T04:22:46;4.30;;;3.22;;
22144;SDS011;11238;48.730;11.566;2023-11-19T04:25:12;3.42;;;3.00;;
22144;SDS011;11238;48.730;11.566;2023-11-19T04:27:40;3.65;;;3.10;;
22144;SDS011;11238;48.730;11.566;2023-11-19T04:30:07;6.65;;;3.55;;
22144;SDS011;11238;48.730;11.566;2023-11-19T04:32:36;4.80;;;3.53;;
22144;SDS011;11238;48.730;11.566;2023-11-19T04:35:02;4.85;;;3.53;;
22144;SDS011;11238;48.730;11.566;2023-11-19T04:37:29;4.47;;;3.40;;
22144;SDS011;11238;48.730;11.566;2023-11-19T04:39:54;3.95;;;3.28;;
22144;SDS011;11238;48.730;11.566;2023-11-19T04:42:24;8.57;;;3.40;;
22144;SDS011;11238;48.730;11.566;2023-11-19T04:44:50;3.78;;;3.15;;
22144;SDS011;11238;48.730;11.566;2023-11-19T04:47:16;5.00;;;3.85;;
22144;SDS011;11238;48.730;11.566;2023-11-19T04:49:41;4.22;;;3.40;;
22144;SDS011;11238;48.730;11.566;2023-11-19T04:52:10;4.72;;;3.63;;
22144;SDS011;11238;48.730;11.566;2023-11-19T04:54:41;4.57;;;3.58;;
22144;SDS011;11238;48.730;11.566;2023-11-19T04:57:07;4.93;;;3.50;;
22144;SDS011;11238;48.730;11.566;2023-11-19T04:59:36;5.25;;;3.70;;
22144;SDS011;11238;48.730;11.566;2023-11-19T05:02:02;4.35;;;3.33;;
22144;SDS011;11238;48.730;11.566;2023-11-19T05:04:29;6.47;;;3.90;;
22144;SDS011;11238;48.730;11.566;2023-11-19T05:06:56;6.05;;;3.78;;
22144;SDS011;11238;48.730;11.566;2023-11-19T05:09:21;5.00;;;3.72;;
22144;SDS011;11238;48.730;11.566;2023-11-19T05:11:47;4.85;;;3.83;;
22144;SDS011;11238;48.730;11.566;2023-11-19T05:14:14;4.72;;;3.45;;
22144;SDS011;11238;48.730;11.566;2023-11-19T05:16:40;4.78;;;3.47;;
22144;SDS011;11238;48.730;11.566;2023-11-19T05:19:06;5.95;;;3.90;;
22144;SDS011;11238;48.730;11.566;2023-11-19T05:21:32;6.93;;;3.85;;
22144;SDS011;11238;48.730;11.566;2023-11-19T05:23:59;5.50;;;3.80;;
22144;SDS011;11238;48.730;11.566;2023-11-19T05:26:25;5.00;;;3.47;;
22144;SDS011;11238;48.730;11.566;2023-11-19T05:28:51;5.10;;;3.67;;
22144;SDS011;11238;48.730;11.566;2023-11-19T05:31:18;5.40;;;3.78;;
22144;SDS011;11238;48.730;11.566;2023-11-19T05:33:43;4.28;;;3.40;;
22144;SDS011;11238;48.730;11.566;2023-11-19T05:36:10;6.50;;;3.83;;
22144;SDS011;11238;48.730;11.566;2023-11-19T05:38:37;4.57;;;3.42;;
22144;SDS011;11238;48.730;11.566;2023-11-19T05:41:04;4.82;;;3.58;;
22144;SDS011;11238;48.730;11.566;2023-11-19T05:43:31;6.28;;;3.85;;
22144;SDS011;11238;48.730;11.566;2023-11-19T05:45:57;5.32;;;3.40;;
22144;SDS011;11238;48.730;11.566;2023-11-19T05:48:25;6.05;;;3.72;;
22144;SDS011;11238;48.730;11.566;2023-11-19T05:50:51;4.20;;;3.30;;
22144;SDS011;11238;48.730;11.566;2023-11-19T05:53:17;5.70;;;3.72;;
22144;SDS011;11238;48.730;11.566;2023-11-19T05:55:43;6.28;;;3.55;;
22144;SDS011;11238;48.730;11.566;2023-11-19T05:58:23;4.13;;;3.30;;
22144;SDS011;11238;48.730;11.566;2023-11-19T06:00:51;5.13;;;3.40;;
22144;SDS011;11238;48.730;11.566;2023-11-19T06:03:17;4.75;;;3.13;;
22144;SDS011;11238;48.730;11.566;2023-11-19T06:05:46;5.57;;;3.30;;
22144;SDS011;11238;48.730;11.566;2023-11-19T06:08:13;3.92;;;3.28;;
22144;SDS011;11238;48.730;11.566;2023-11-19T06:10:40;6.18;;;4.30;;
22144;SDS011;11238;48.730;11.566;2023-11-19T06:13:06;5.03;;;3.63;;
22144;SDS011;11238;48.730;11.566;2023-11-19T06:15:32;6.22;;;3.70;;
22144;SDS011;11238;48.730;11.566;2023-11-19T06:17:58;5.03;;;3.65;;
22144;SDS011;11238;48.730;11.566;2023-11-19T06:20:26;5.50;;;3.53;;
22144;SDS011;11238;48.730;11.566;2023-11-19T06:22:56;6.65;;;3.70;;
22144;SDS011;11238;48.730;11.566;2023-11-19T06:25:25;5.70;;;3.50;;
22144;SDS011;11238;48.730;11.566;2023-11-19T06:27:51;7.30;;;3.80;;
22144;SDS011;11238;48.730;11.566;2023-11-19T06:30:18;5.20;;;3.22;;
22144;SDS011;11238;48.730;11.566;2023-11-19T06:32:46;7.05;;;3.40;;
22144;SDS011;11238;48.730;11.566;2023-11-19T06:35:12;20.30;;;7.90;;
22144;SDS011;11238;48.730;11.566;2023-11-19T06:37:39;9.90;;;6.05;;
22144;SDS011;11238;48.730;11.566;2023-11-19T06:40:06;3.60;;;2.80;;
22144;SDS011;11238;48.730;11.566;2023-11-19T06:42:34;3.90;;;3.00;;
22144;SDS011;11238;48.730;11.566;2023-11-19T06:45:01;3.13;;;2.58;;
22144;SDS011;11238;48.730;11.566;2023-11-19T06:47:28;4.65;;;2.42;;
22144;SDS011;11238;48.730;11.566;2023-11-19T06:49:54;3.58;;;2.38;;
22144;SDS011;11238;48.730;11.566;2023-11-19T06:52:21;2.75;;;2.35;;
22144;SDS011;11238;48.730;11.566;2023-11-19T06:54:59;3.10;;;2.05;;
22144;SDS011;11238;48.730;11.566;2023-11-19T06:57:27;2.97;;;2.03;;
22144;SDS011;11238;48.730;11.566;2023-11-19T07:00:52;4.13;;;2.42;;
22144;SDS011;11238;48.730;11.566;2023-11-19T07:04:02;2.80;;;2.00;;
22144;SDS011;11238;48.730;11.566;2023-11-19T07:07:18;2.20;;;2.00;;
22144;SDS011;11238;48.730;11.566;2023-11-19T07:10:11;2.15;;;1.88;;
22144;SDS011;11238;48.730;11.566;2023-11-19T07:13:07;3.80;;;2.00;;
22144;SDS011;11238;48.730;11.566;2023-11-19T07:15:58;3.53;;;2.10;;
22144;SDS011;11238;48.730;11.566;2023-11-19T07:19:01;2.20;;;2.00;;
22144;SDS011;11238;48.730;11.566;2023-11-19T07:21:31;2.28;;;1.88;;
22144;SDS011;11238;48.730;11.566;2023-11-19T07:23:58;3.05;;;2.00;;
22144;SDS011;11238;48.730;11.566;2023-11-19T07:26:27;4.65;;;2.00;;
22144;SDS011;11238;48.730;11.566;2023-11-19T07:28:53;3.72;;;2.08;;
22144;SDS011;11238;48.730;11.566;2023-11-19T07:31:20;2.80;;;1.90;;
22144;SDS011;11238;48.730;11.566;2023-11-19T07:33:53;3.45;;;1.85;;
22144;SDS011;11238;48.730;11.566;2023-11-19T07:36:19;2.42;;;2.10;;
22144;SDS011;11238;48.730;11.566;2023-11-19T07:38:51;2.20;;;2.00;;
22144;SDS011;11238;48.730;11.566;2023-11-19T07:44:17;2.20;;;2.00;;
22144;SDS011;11238;48.730;11.566;2023-11-19T07:46:57;2.50;;;2.20;;
22144;SDS011;11238;48.730;11.566;2023-11-19T07:49:36;2.90;;;2.10;;
22144;SDS011;11238;48.730;11.566;2023-11-19T07:52:15;3.00;;;2.30;;
22144;SDS011;11238;48.730;11.566;2023-11-19T07:54:45;3.60;;;2.17;;
22144;SDS011;11238;48.730;11.566;2023-11-19T07:57:11;4.00;;;2.30;;
22144;SDS011;11238;48.730;11.566;2023-11-19T07:59:37;2.10;;;1.92;;
22144;SDS011;11238;48.730;11.566;2023-11-19T08:02:03;3.58;;;1.90;;
22144;SDS011;11238;48.730;11.566;2023-11-19T08:04:30;2.22;;;1.88;;
22144;SDS011;11238;48.730;11.566;2023-11-19T08:06:56;3.47;;;2.10;;
22144;SDS011;11238;48.730;11.566;2023-11-19T08:09:22;2.45;;;2.15;;
22144;SDS011;11238;48.730;11.566;2023-11-19T08:11:48;2.42;;;1.77;;
22144;SDS011;11238;48.730;11.566;2023-11-19T08:14:15;3.67;;;2.20;;
22144;SDS011;11238;48.730;11.566;2023-11-19T08:16:41;3.75;;;1.88;;
22144;SDS011;11238;48.730;11.566;2023-11-19T08:19:07;2.58;;;2.22;;
22144;SDS011;11238;48.730;11.566;2023-11-19T08:21:34;2.55;;;2.03;;
22144;SDS011;11238;48.730;11.566;2023-11-19T08:24:00;2.20;;;1.85;;
22144;SDS011;11238;48.730;11.566;2023-11-19T08:26:26;3.03;;;2.20;;
22144;SDS011;11238;48.730;11.566;2023-11-19T08:28:52;2.45;;;1.83;;
22144;SDS011;11238;48.730;11.566;2023-11-19T08:31:21;1.90;;;1.80;;
22144;SDS011;11238;48.730;11.566;2023-11-19T08:33:47;4.60;;;2.28;;
22144;SDS011;11238;48.730;11.566;2023-11-19T08:36:16;2.10;;;1.90;;
22144;SDS011;11238;48.730;11.566;2023-11-19T08:38:43;2.10;;;1.90;;
22144;SDS011;11238;48.730;11.566;2023-11-19T08:41:11;3.45;;;1.92;;
22144;SDS011;11238;48.730;11.566;2023-11-19T08:43:37;2.13;;;1.63;;
22144;SDS011;11238;48.730;11.566;2023-11-19T08:46:09;1.67;;;1.58;;
22144;SDS011;11238;48.730;11.566;2023-11-19T08:48:36;4.05;;;1.70;;
22144;SDS011;11238;48.730;11.566;2023-11-19T08:51:04;3.25;;;1.90;;
22144;SDS011;11238;48.730;11.566;2023-11-19T08:53:35;2.03;;;1.75;;
22144;SDS011;11238;48.730;11.566;2023-11-19T08:56:07;2.47;;;1.77;;
22144;SDS011;11238;48.730;11.566;2023-11-19T08:58:34;2.75;;;1.65;;
22144;SDS011;11238;48.730;11.566;2023-11-19T09:01:00;1.50;;;1.40;;
22144;SDS011;11238;48.730;11.566;2023-11-19T09:03:26;1.80;;;1.45;;
22144;SDS011;11238;48.730;11.566;2023-11-19T09:05:52;1.90;;;1.70;;
22144;SDS011;11238;48.730;11.566;2023-11-19T09:08:18;1.52;;;1.40;;
22144;SDS011;11238;48.730;11.566;2023-11-19T09:10:49;1.40;;;1.30;;
22144;SDS011;11238;48.730;11.566;2023-11-19T09:13:18;1.70;;;1.40;;
22144;SDS011;11238;48.730;11.566;2023-11-19T09:15:45;1.98;;;1.25;;
22144;SDS011;11238;48.730;11.566;2023-11-19T09:18:11;3.20;;;1.50;;
22144;SDS011;11238;48.730;11.566;2023-11-19T09:20:37;1.92;;;1.20;;
22144;SDS011;11238;48.730;11.566;2023-11-19T09:23:11;1.20;;;1.10;;
22144;SDS011;11238;48.730;11.566;2023-11-19T09:25:37;1.10;;;1.00;;
22144;SDS011;11238;48.730;11.566;2023-11-19T09:28:32;1.02;;;1.00;;
22144;SDS011;11238;48.730;11.566;2023-11-19T09:34:09;1.35;;;1.10;;
22144;SDS011;11238;48.730;11.566;2023-11-19T09:36:43;1.38;;;1.10;;
22144;SDS011;11238;48.730;11.566;2023-11-19T09:40:05;1.10;;;1.00;;
22144;SDS011;11238;48.730;11.566;2023-11-19T09:42:37;1.70;;;1.10;;
22144;SDS011;11238;48.730;11.566;2023-11-19T09:45:12;1.20;;;1.10;;
22144;SDS011;11238;48.730;11.566;2023-11-19T09:47:40;0.85;;;0.85;;
22144;SDS011;11238;48.730;11.566;2023-11-19T09:50:18;0.93;;;0.93;;
22144;SDS011;11238;48.730;11.566;2023-11-19T09:52:45;1.45;;;1.20;;
22144;SDS011;11238;48.730;11.566;2023-11-19T09:55:13;0.90;;;0.90;;
22144;SDS011;11238;48.730;11.566;2023-11-19T09:57:40;1.08;;;0.98;;
22144;SDS011;11238;48.730;11.566;2023-11-19T10:00:07;1.52;;;0.82;;
22144;SDS011;11238;48.730;11.566;2023-11-19T10:02:37;1.38;;;1.27;;
22144;SDS011;11238;48.730;11.566;2023-11-19T10:05:05;1.13;;;1.00;;
22144;SDS011;11238;48.730;11.566;2023-11-19T10:07:32;1.15;;;1.05;;
22144;SDS011;11238;48.730;11.566;2023-11-19T10:09:59;1.10;;;1.00;;
22144;SDS011;11238;48.730;11.566;2023-11-19T10:12:27;1.98;;;1.10;;
22144;SDS011;11238;48.730;11.566;2023-11-19T10:14:54;1.00;;;1.00;;
22144;SDS011;11238;48.730;11.566;2023-11-19T10:17:22;1.13;;;0.90;;
22144;SDS011;11238;48.730;11.566;2023-11-19T10:19:54;1.05;;;0.90;;
22144;SDS011;11238;48.730;11.566;2023-11-19T10:22:22;1.10;;;1.00;;
22144;SDS011;11238;48.730;11.566;2023-11-19T10:24:49;1.00;;;0.90;;
22144;SDS011;11238;48.730;11.566;2023-11-19T10:27:15;0.80;;;0.80;;
22144;SDS011;11238;48.730;11.566;2023-11-19T10:29:44;1.02;;;0.75;;
22144;SDS011;11238;48.730;11.566;2023-11-19T10:32:13;1.08;;;0.90;;
22144;SDS011;11238;48.730;11.566;2023-11-19T10:34:42;0.85;;;0.80;;
22144;SDS011;11238;48.730;11.566;2023-11-19T10:37:09;0.98;;;0.80;;
22144;SDS011;11238;48.730;11.566;2023-11-19T10:39:52;1.00;;;0.90;;
22144;SDS011;11238;48.730;11.566;2023-11-19T10:42:22;2.88;;;0.90;;
22144;SDS011;11238;48.730;11.566;2023-11-19T10:44:49;0.80;;;0.80;;
22144;SDS011;11238;48.730;11.566;2023-11-19T10:47:15;0.80;;;0.80;;
22144;SDS011;11238;48.730;11.566;2023-11-19T10:49:44;3.40;;;1.02;;
22144;SDS011;11238;48.730;11.566;2023-11-19T10:52:11;1.00;;;0.90;;
22144;SDS011;11238;48.730;11.566;2023-11-19T10:54:41;0.90;;;0.90;;
22144;SDS011;11238;48.730;11.566;2023-11-19T10:57:12;0.88;;;0.80;;
22144;SDS011;11238;48.730;11.566;2023-11-19T10:59:44;2.20;;;1.10;;
22144;SDS011;11238;48.730;11.566;2023-11-19T11:02:11;2.40;;;1.00;;
22144;SDS011;11238;48.730;11.566;2023-11-19T11:04:41;1.10;;;1.00;;
22144;SDS011;11238;48.730;11.566;2023-11-19T11:07:08;0.85;;;0.85;;
22144;SDS011;11238;48.730;11.566;2023-11-19T11:09:35;1.98;;;0.90;;
22144;SDS011;11238;48.730;11.566;2023-11-19T11:12:01;1.45;;;0.90;;
22144;SDS011;11238;48.730;11.566;2023-11-19T11:14:30;0.93;;;0.88;;
22144;SDS011;11238;48.730;11.566;2023-11-19T11:16:58;1.65;;;1.15;;
22144;SDS011;11238;48.730;11.566;2023-11-19T11:19:23;1.00;;;1.00;;
22144;SDS011;11238;48.730;11.566;2023-11-19T11:21:50;1.10;;;0.80;;
22144;SDS011;11238;48.730;11.566;2023-11-19T11:27:16;1.92;;;1.13;;
22144;SDS011;11238;48.730;11.566;2023-11-19T11:30:04;1.00;;;0.90;;
22144;SDS011;11238;48.730;11.566;2023-11-19T11:38:13;1.05;;;0.95;;
22144;SDS011;11238;48.730;11.566;2023-11-19T11:40:41;1.48;;;0.90;;
22144;SDS011;11238;48.730;11.566;2023-11-19T11:49:00;1.42;;;0.80;;
22144;SDS011;11238;48.730;11.566;2023-11-19T11:54:09;0.80;;;0.80;;
22144;SDS011;11238;48.730;11.566;2023-11-19T11:56:38;1.10;;;0.90;;
22144;SDS011;11238;48.730;11.566;2023-11-19T11:59:23;1.65;;;0.85;;
22144;SDS011;11238;48.730;11.566;2023-11-19T12:01:58;0.85;;;0.85;;
22144;SDS011;11238;48.730;11.566;2023-11-19T12:04:46;1.17;;;0.88;;
22144;SDS011;11238;48.730;11.566;2023-11-19T12:07:17;1.67;;;0.90;;
22144;SDS011;11238;48.730;11.566;2023-11-19T12:09:47;1.52;;;0.90;;
22144;SDS011;11238;48.730;11.566;2023-11-19T12:12:33;2.63;;;1.20;;
22144;SDS011;11238;48.730;11.566;2023-11-19T12:15:07;1.33;;;0.88;;
22144;SDS011;11238;48.730;11.566;2023-11-19T12:17:38;0.90;;;0.75;;
22144;SDS011;11238;48.730;11.566;2023-11-19T12:20:09;1.77;;;0.80;;
22144;SDS011;11238;48.730;11.566;2023-11-19T12:22:37;1.00;;;0.70;;
22144;SDS011;11238;48.730;11.566;2023-11-19T12:25:07;0.63;;;0.63;;
22144;SDS011;11238;48.730;11.566;2023-11-19T12:27:35;0.80;;;0.80;;
22144;SDS011;11238;48.730;11.566;2023-11-19T12:30:02;2.65;;;0.70;;
22144;SDS011;11238;48.730;11.566;2023-11-19T12:35:06;0.75;;;0.75;;
22144;SDS011;11238;48.730;11.566;2023-11-19T12:37:40;1.13;;;0.73;;
22144;SDS011;11238;48.730;11.566;2023-11-19T12:40:11;2.00;;;0.88;;
22144;SDS011;11238;48.730;11.566;2023-11-19T12:42:38;0.70;;;0.70;;
22144;SDS011;11238;48.730;11.566;2023-11-19T12:45:04;0.77;;;0.77;;
22144;SDS011;11238;48.730;11.566;2023-11-19T12:47:31;0.88;;;0.80;;
22144;SDS011;11238;48.730;11.566;2023-11-19T12:49:57;1.00;;;0.80;;
22144;SDS011;11238;48.730;11.566;2023-11-19T12:52:23;0.73;;;0.73;;
22144;SDS011;11238;48.730;11.566;2023-11-19T12:54:49;1.02;;;0.75;;
22144;SDS011;11238;48.730;11.566;2023-11-19T12:57:16;0.73;;;0.73;;
22144;SDS011;11238;48.730;11.566;2023-11-19T12:59:53;0.82;;;0.70;;
22144;SDS011;11238;48.730;11.566;2023-11-19T13:02:20;0.85;;;0.70;;
22144;SDS011;11238;48.730;11.566;2023-11-19T13:04:47;0.70;;;0.65;;
22144;SDS011;11238;48.730;11.566;2023-11-19T13:07:12;0.80;;;0.80;;
22144;SDS011;11238;48.730;11.566;2023-11-19T13:09:38;1.92;;;0.98;;
22144;SDS011;11238;48.730;11.566;2023-11-19T13:12:14;0.80;;;0.80;;
22144;SDS011;11238;48.730;11.566;2023-11-19T13:14:40;1.45;;;0.80;;
22144;SDS011;11238;48.730;11.566;2023-11-19T13:17:07;0.80;;;0.70;;
22144;SDS011;11238;48.730;11.566;2023-11-19T13:19:33;0.90;;;0.90;;
22144;SDS011;11238;48.730;11.566;2023-11-19T13:22:00;1.17;;;0.80;;
22144;SDS011;11238;48.730;11.566;2023-11-19T13:24:25;0.93;;;0.80;;
22144;SDS011;11238;48.730;11.566;2023-11-19T13:26:51;0.80;;;0.80;;
22144;SDS011;11238;48.730;11.566;2023-11-19T13:29:17;0.73;;;0.73;;
22144;SDS011;11238;48.730;11.566;2023-11-19T13:31:43;0.80;;;0.80;;
22144;SDS011;11238;48.730;11.566;2023-11-19T13:34:09;1.63;;;0.80;;
22144;SDS011;11238;48.730;11.566;2023-11-19T13:36:35;2.22;;;0.75;;
22144;SDS011;11238;48.730;11.566;2023-11-19T13:39:01;0.77;;;0.77;;
22144;SDS011;11238;48.730;11.566;2023-11-19T13:41:27;0.77;;;0.77;;
22144;SDS011;11238;48.730;11.566;2023-11-19T13:43:53;1.40;;;0.98;;
22144;SDS011;11238;48.730;11.566;2023-11-19T13:46:20;1.05;;;0.93;;
22144;SDS011;11238;48.730;11.566;2023-11-19T13:48:46;1.25;;;0.73;;
22144;SDS011;11238;48.730;11.566;2023-11-19T13:51:14;1.08;;;0.88;;
22144;SDS011;11238;48.730;11.566;2023-11-19T13:53:40;0.70;;;0.70;;
22144;SDS011;11238;48.730;11.566;2023-11-19T13:56:07;0.80;;;0.80;;
22144;SDS011;11238;48.730;11.566;2023-11-19T13:58:33;1.20;;;0.80;;
22144;SDS011;11238;48.730;11.566;2023-11-19T14:00:58;0.90;;;0.90;;
22144;SDS011;11238;48.730;11.566;2023-11-19T14:03:24;1.00;;;0.90;;
22144;SDS011;11238;48.730;11.566;2023-11-19T14:05:50;0.85;;;0.85;;
22144;SDS011;11238;48.730;11.566;2023-11-19T14:08:17;0.90;;;0.85;;
22144;SDS011;11238;48.730;11.566;2023-11-19T14:10:43;0.60;;;0.60;;
22144;SDS011;11238;48.730;11.566;2023-11-19T14:13:09;1.92;;;0.80;;
22144;SDS011;11238;48.730;11.566;2023-11-19T14:15:38;0.88;;;0.70;;
22144;SDS011;11238;48.730;11.566;2023-11-19T14:18:03;0.95;;;0.80;;
22144;SDS011;11238;48.730;11.566;2023-11-19T14:20:29;0.70;;;0.70;;
22144;SDS011;11238;48.730;11.566;2023-11-19T14:22:56;1.15;;;0.98;;
22144;SDS011;11238;48.730;11.566;2023-11-19T14:25:23;1.00;;;1.00;;
22144;SDS011;11238;48.730;11.566;2023-11-19T14:27:48;0.93;;;0.77;;
22144;SDS011;11238;48.730;11.566;2023-11-19T14:30:14;1.10;;;0.82;;
22144;SDS011;11238;48.730;11.566;2023-11-19T14:32:42;0.95;;;0.85;;
22144;SDS011;11238;48.730;11.566;2023-11-19T14:40:35;2.15;;;0.93;;
22144;SDS011;11238;48.730;11.566;2023-11-19T14:43:01;0.82;;;0.80;;
22144;SDS011;11238;48.730;11.566;2023-11-19T14:45:27;0.80;;;0.80;;
22144;SDS011;11238;48.730;11.566;2023-11-19T14:47:54;2.17;;;0.90;;
22144;SDS011;11238;48.730;11.566;2023-11-19T14:50:20;1.10;;;0.95;;
22144;SDS011;11238;48.730;11.566;2023-11-19T14:52:46;2.78;;;1.05;;
22144;SDS011;11238;48.730;11.566;2023-11-19T14:55:12;0.93;;;0.80;;
22144;SDS011;11238;48.730;11.566;2023-11-19T14:57:38;0.90;;;0.90;;
22144;SDS011;11238;48.730;11.566;2023-11-19T15:00:04;0.85;;;0.85;;
22144;SDS011;11238;48.730;11.566;2023-11-19T15:02:38;0.70;;;0.70;;
22144;SDS011;11238;48.730;11.566;2023-11-19T15:05:06;1.17;;;1.08;;
22144;SDS011;11238;48.730;11.566;2023-11-19T15:07:35;1.48;;;0.88;;
22144;SDS011;11238;48.730;11.566;2023-11-19T15:10:05;1.20;;;0.80;;
22144;SDS011;11238;48.730;11.566;2023-11-19T15:12:38;2.17;;;1.00;;
22144;SDS011;11238;48.730;11.566;2023-11-19T15:15:06;0.80;;;0.80;;